This is the latest recevied weather packets stored in our database for station/object K4MUW-4. If no packets are shown the sender has not sent any weather packets the latest 10 day(s).
| Time | Temp. | Humidity | Pressure | Rain* | Wind** | Luminosity | Snow |
|---|---|---|---|---|---|---|---|
| 1777781488 | 13.89° C | 38% | 1013 hPa | 0 mm | 1.34 m/s, 328° | - | - |
| 1777781488 | 14.44° C | 38% | 1013 hPa | 0 mm | 0 m/s | - | - |
| 1777781488 | 15° C | 36% | 1013 hPa | 0 mm | 1.79 m/s, 351° | - | - |
| 1777781488 | 15.56° C | 34% | 1012 hPa | 0 mm | 1.34 m/s, 291° | - | - |
| 1777781488 | 15.56° C | 34% | 1012 hPa | 0 mm | 0 m/s | - | - |
| 1777781488 | 17.22° C | 27% | 1012 hPa | 0 mm | 0 m/s | - | - |
| 1777781488 | 17.22° C | 28% | 1012 hPa | 0 mm | 1.34 m/s, 204° | - | - |
| 1777781488 | 17.78° C | 26% | 1012 hPa | 0 mm | 0 m/s | - | - |
| 1777781488 | 18.33° C | 25% | 1012 hPa | 0 mm | 0 m/s | - | - |
| 1777781253 | 12.22° C | 45% | 1015 hPa | 0 mm | 0 m/s | - | - |
| 1777780953 | 12.22° C | 43% | 1014 hPa | 0 mm | 0 m/s | - | - |
| 1777780652 | 12.78° C | 43% | 1014 hPa | 0 mm | 0 m/s | - | - |
| 1777780352 | 12.78° C | 42% | 1014 hPa | 0 mm | 0 m/s | - | - |
| 1777780051 | 12.78° C | 42% | 1014 hPa | 0 mm | 0 m/s | - | - |
| 1777779751 | 13.33° C | 41% | 1014 hPa | 0 mm | 0 m/s | - | - |
| 1777779451 | 13.33° C | 41% | 1014 hPa | 0 mm | 0 m/s | - | - |
| 1777779150 | 13.33° C | 40% | 1014 hPa | 0 mm | 0 m/s | - | - |
| 1777778850 | 13.33° C | 40% | 1014 hPa | 0 mm | 1.34 m/s, 323° | - | - |
| 1777778549 | 13.89° C | 39% | 1014 hPa | 0 mm | 0 m/s | - | - |
| 1777778249 | 13.89° C | 38% | 1014 hPa | 0 mm | 0 m/s | - | - |
| 1777777948 | 13.89° C | 38% | 1014 hPa | 0 mm | 0 m/s | - | - |
| 1777777648 | 13.89° C | 36% | 1014 hPa | 0 mm | 0 m/s | - | - |
| 1777777348 | 14.44° C | 38% | 1014 hPa | 0 mm | 0 m/s | - | - |
| 1777777047 | 14.44° C | 38% | 1014 hPa | 0 mm | 1.79 m/s, 351° | - | - |
| 1777776747 | 14.44° C | 36% | 1014 hPa | 0 mm | 0 m/s | - | - |
* Rain latest hour (hover to see other rain measurements)
** Current wind speed in m/s (hover to see current wind gust speed)